Uni-arise — 3FSV7 — position and weather

sailwx.info

Track history (hours):
 
Tides and Currents Weather Stations Pressure Air Temp Water Temp Dewpoint Dewpoint Depression Visibility Wind Speed Wind Dir Waves Ship Positions

Uni-arise

Last reported at 2016-Sep-22 12:29 UTC. Time now 2016-Sep-25 03:38 UTC.
Position N 34°40' E 135°14'.

Length 165 m; draft 7.2 m.

Type: Ship (hazmat cat D). MMSI: 351608000.

Date/timePositionNaut miles runAvg speedWind from/ knotsBaromVisibWave heightAir tempDewpointWater temp
2016-Sep-22 12:29N 34°40' E 135°14'8 1.0
2016-Sep-22 04:31N 34°39' E 135°24'0 0.0
2016-Sep-22 03:19N 34°39' E 135°24'25 9.2
2016-Sep-22 00:33N 34°21' E 135°03'1312.9
2016-Sep-21 23:34N 34°08' E 134°60'  
2016-Sep-18 01:20N 22°53' E 119°57'1114.3
2016-Sep-18 00:33N 22°43' E 120°02'17 5.5
2016-Sep-17 21:30N 22°35' E 120°18'4 0.4
2016-Sep-17 13:30N 22°31' E 120°16'0 0.1
2016-Sep-17 12:30N 22°31' E 120°16'0 0.0
2016-Sep-17 10:30N 22°31' E 120°16'0 0.0
2016-Sep-17 09:30N 22°31' E 120°16'0 0.1
2016-Sep-17 08:30N 22°31' E 120°16'0 0.0
2016-Sep-17 07:30N 22°31' E 120°16'0 0.0
2016-Sep-17 05:30N 22°31' E 120°16'5 4.8
2016-Sep-17 04:33N 22°29' E 120°13'338 6.6
2016-Sep-15 01:12N 22°20' E 114°08'131 4.9
2016-Sep-13 22:16N 22°35' E 116°29'  
Track history (hours):
 
Tides and Currents Weather Stations Pressure Air Temp Water Temp Dewpoint Dewpoint Depression Visibility Wind Speed Wind Dir Waves Ship Positions

Uni-arise

Last reported at 2016-Sep-22 12:29 UTC. Time now 2016-Sep-25 03:38 UTC.
Position N 34°40' E 135°14'.

Length 165 m; draft 7.2 m.

Type: Ship (hazmat cat D). MMSI: 351608000.

Date/timePositionNaut miles runAvg speedWind from/ knotsBaromVisibWave heightAir tempDewpointWater temp
2016-Sep-22 12:29N 34°40' E 135°14'8 1.0
2016-Sep-22 04:31N 34°39' E 135°24'0 0.0
2016-Sep-22 03:19N 34°39' E 135°24'25 9.2
2016-Sep-22 00:33N 34°21' E 135°03'1312.9
2016-Sep-21 23:34N 34°08' E 134°60'  
2016-Sep-18 01:20N 22°53' E 119°57'1114.3
2016-Sep-18 00:33N 22°43' E 120°02'17 5.5
2016-Sep-17 21:30N 22°35' E 120°18'4 0.4
2016-Sep-17 13:30N 22°31' E 120°16'0 0.1
2016-Sep-17 12:30N 22°31' E 120°16'0 0.0
2016-Sep-17 10:30N 22°31' E 120°16'0 0.0
2016-Sep-17 09:30N 22°31' E 120°16'0 0.1
2016-Sep-17 08:30N 22°31' E 120°16'0 0.0
2016-Sep-17 07:30N 22°31' E 120°16'0 0.0
2016-Sep-17 05:30N 22°31' E 120°16'5 4.8
2016-Sep-17 04:33N 22°29' E 120°13'338 6.6
2016-Sep-15 01:12N 22°20' E 114°08'131 4.9
2016-Sep-13 22:16N 22°35' E 116°29'  

Dump ship's entire track history